createdAt,value
2019-04-05T00:02:59.894Z,12.00
2019-04-05T00:08:03.653Z,10.80
2019-04-05T00:13:07.657Z,9.63
2019-04-05T00:18:10.914Z,10.83
2019-04-05T00:23:14.178Z,12.13
2019-04-05T00:28:17.442Z,14.40
2019-04-05T00:33:20.704Z,13.20
2019-04-05T00:38:23.972Z,11.43
2019-04-05T00:43:27.577Z,11.97
2019-04-05T00:48:31.178Z,11.87
2019-04-05T00:53:34.494Z,14.73
2019-04-05T00:58:37.961Z,13.53
2019-04-05T01:03:41.289Z,12.53
2019-04-05T01:08:44.718Z,10.53
2019-04-05T01:13:48.564Z,11.43
2019-04-05T01:18:52.214Z,10.60
2019-04-05T01:23:56.546Z,10.37
2019-04-05T01:28:59.873Z,11.50
2019-04-05T01:34:05.393Z,11.90
2019-04-05T01:39:08.181Z,10.53
2019-04-05T01:44:11.826Z,10.97
2019-04-05T01:49:15.451Z,9.47
2019-04-05T01:54:18.714Z,10.67
2019-04-05T01:59:22.051Z,8.87
2019-04-05T02:04:25.701Z,10.17
2019-04-05T02:09:29.041Z,8.67
2019-04-05T02:14:32.365Z,10.57
2019-04-05T02:19:35.714Z,11.87
2019-04-05T02:24:39.406Z,9.90
2019-04-05T02:29:43.129Z,10.30
2019-04-05T02:34:46.862Z,10.50
2019-04-05T02:39:50.193Z,13.87
2019-04-05T02:44:54.179Z,13.83
2019-04-05T02:49:58.117Z,14.50
2019-04-05T02:55:02.260Z,15.63
2019-04-05T03:00:06.189Z,14.67
2019-04-05T03:05:10.096Z,13.70
2019-04-05T03:10:15.273Z,10.77
2019-04-05T03:15:18.606Z,9.87
2019-04-05T03:20:22.297Z,11.73
2019-04-05T03:25:27.393Z,10.10
2019-04-05T03:30:30.969Z,8.57
2019-04-05T03:35:34.292Z,9.37
2019-04-05T03:40:38.217Z,9.50
2019-04-05T03:45:41.468Z,8.23
2019-04-05T03:50:45.438Z,8.10
2019-04-05T03:55:48.941Z,8.87
2019-04-05T04:00:52.518Z,9.07
2019-04-05T04:05:55.782Z,10.23
2019-04-05T04:10:59.732Z,10.83
2019-04-05T04:16:03.183Z,9.73
2019-04-05T04:21:13.797Z,10.37
2019-04-05T04:26:17.328Z,10.43
2019-04-05T04:31:22.509Z,11.50
2019-04-05T04:36:25.839Z,10.87
2019-04-05T04:41:31.896Z,15.32
2019-04-05T04:46:35.137Z,14.60
2019-04-05T04:51:38.977Z,13.40
2019-04-05T04:56:42.779Z,12.03
2019-04-05T05:01:46.098Z,12.97
2019-04-05T05:06:49.720Z,14.97
2019-04-05T05:11:53.368Z,14.33
2019-04-05T05:16:56.693Z,13.33
2019-04-05T05:22:00.225Z,14.80
2019-04-05T05:27:04.061Z,15.57
2019-04-05T05:32:09.706Z,16.03
2019-04-05T05:37:12.392Z,16.77
2019-04-05T05:42:16.114Z,16.00
2019-04-05T05:47:19.920Z,17.53
2019-04-05T05:52:23.745Z,15.80
2019-04-05T05:57:27.002Z,16.90
2019-04-05T06:02:30.256Z,17.00
2019-04-05T06:07:33.584Z,18.07
2019-04-05T06:12:36.837Z,20.47
2019-04-05T06:17:40.155Z,20.93
2019-04-05T06:22:43.421Z,21.60
2019-04-05T06:27:46.688Z,20.90
2019-04-05T06:32:50.010Z,18.30
2019-04-05T06:37:53.302Z,21.17
2019-04-05T06:42:56.899Z,18.00
2019-04-05T06:48:00.153Z,18.80
2019-04-05T06:53:03.497Z,17.00
2019-04-05T06:58:10.227Z,18.40
2019-04-05T07:03:13.626Z,21.73
2019-04-05T07:08:18.502Z,19.30
2019-04-05T07:13:22.317Z,17.83
2019-04-05T07:18:34.041Z,18.60
2019-04-05T07:23:30.517Z,17.80
2019-04-05T07:28:34.139Z,18.40
2019-04-05T07:33:37.393Z,21.73
2019-04-05T07:38:40.658Z,24.40
2019-04-05T07:43:44.254Z,21.43
2019-04-05T07:48:47.509Z,21.87
2019-04-05T07:53:50.765Z,23.40
2019-04-05T07:58:54.410Z,21.73
2019-04-05T08:03:58.223Z,22.20
2019-04-05T08:09:05.156Z,20.43
2019-04-05T08:14:08.508Z,19.37
2019-04-05T08:19:11.843Z,20.60
2019-04-05T08:24:15.096Z,19.87
2019-04-05T08:29:18.440Z,21.47
2019-04-05T08:34:21.772Z,19.97
2019-04-05T08:39:25.029Z,21.17
2019-04-05T08:44:28.357Z,18.00
2019-04-05T08:49:31.691Z,18.63
2019-04-05T08:54:36.752Z,19.50
2019-04-05T08:59:39.865Z,19.33
2019-04-05T09:04:43.414Z,19.57
2019-04-05T09:09:46.669Z,19.87
2019-04-05T09:14:50.250Z,19.70
2019-04-05T09:19:54.076Z,19.73
2019-04-05T09:24:57.453Z,20.73
2019-04-05T09:30:01.145Z,19.07
2019-04-05T09:35:07.403Z,22.40
2019-04-05T09:40:10.738Z,23.00
2019-04-05T09:45:14.337Z,23.57
2019-04-05T09:50:17.670Z,23.50
2019-04-05T09:55:21.306Z,20.43
2019-04-05T10:00:26.677Z,21.47
2019-04-05T10:05:30.492Z,21.00
2019-04-05T10:10:33.726Z,20.07
2019-04-05T10:15:37.045Z,18.67
2019-04-05T10:20:40.312Z,16.80
2019-04-05T10:25:44.289Z,15.33
2019-04-05T10:30:47.990Z,15.37
2019-04-05T10:35:51.276Z,14.70
2019-04-05T10:40:54.537Z,19.40
2019-04-05T10:45:57.802Z,19.30
2019-04-05T10:51:01.128Z,24.33
2019-04-05T10:56:04.463Z,21.53
2019-04-05T11:01:07.803Z,21.73
2019-04-05T11:06:11.076Z,21.13
2019-04-05T11:11:14.457Z,19.33
2019-04-05T11:16:18.133Z,22.27
2019-04-05T11:21:21.761Z,20.37
2019-04-05T11:26:25.012Z,22.07
2019-04-05T11:31:28.425Z,22.03
2019-04-05T11:36:31.865Z,22.63
2019-04-05T11:41:36.208Z,23.80
2019-04-05T11:46:39.861Z,23.53
2019-04-05T11:51:43.497Z,24.00
2019-04-05T11:56:47.110Z,22.80
2019-04-05T12:01:58.076Z,25.00
2019-04-05T12:07:01.333Z,22.03
2019-04-05T12:12:04.761Z,24.53
2019-04-05T12:17:09.704Z,24.33
2019-04-05T12:22:13.409Z,23.37
2019-04-05T12:27:16.942Z,24.37
2019-04-05T12:32:32.918Z,26.00
2019-04-05T12:37:27.625Z,23.10
2019-04-05T12:42:31.381Z,23.10
2019-04-05T12:47:34.713Z,23.83
2019-04-05T12:52:37.997Z,23.87
2019-04-05T12:57:41.427Z,22.30
2019-04-05T13:02:44.667Z,21.20
2019-04-05T13:07:47.974Z,23.70
2019-04-05T13:12:51.948Z,21.47
2019-04-05T13:17:55.677Z,21.40
2019-04-05T13:23:02.508Z,21.10
2019-04-05T13:28:13.170Z,21.00
2019-04-05T13:33:09.674Z,21.13
2019-04-05T13:38:13.534Z,21.33
2019-04-05T13:43:17.823Z,25.30
2019-04-05T13:48:21.540Z,21.87
2019-04-05T13:53:24.831Z,25.97
2019-04-05T13:58:28.477Z,23.17
2019-04-05T14:03:31.804Z,22.67
2019-04-05T14:08:36.710Z,22.00
2019-04-05T14:13:42.822Z,25.57
2019-04-05T14:18:49.548Z,24.00
2019-04-05T14:23:51.330Z,22.20
2019-04-05T14:28:55.942Z,22.03
2019-04-05T14:33:59.209Z,21.97
2019-04-05T14:39:02.720Z,20.80
2019-04-05T14:44:06.047Z,19.20
2019-04-05T14:49:09.713Z,21.20
2019-04-05T14:54:12.980Z,21.53
2019-04-05T14:59:16.322Z,21.43
2019-04-05T15:04:19.615Z,21.47
2019-04-05T15:09:25.563Z,20.43
2019-04-05T15:14:27.859Z,21.90
2019-04-05T15:19:31.128Z,20.67
2019-04-05T15:24:34.403Z,19.47
2019-04-05T15:29:37.668Z,20.00
2019-04-05T15:34:41.244Z,21.97
2019-04-05T15:39:44.918Z,20.13
2019-04-05T15:44:48.171Z,22.13
2019-04-05T15:49:52.048Z,21.97
2019-04-05T15:54:56.708Z,21.50
2019-04-05T16:00:03.677Z,21.37
2019-04-05T16:05:06.358Z,19.97
2019-04-05T16:10:09.919Z,21.23
2019-04-05T16:15:13.584Z,21.80
2019-04-05T16:20:16.938Z,22.30
2019-04-05T16:25:20.267Z,23.50
2019-04-05T16:30:23.607Z,23.93
2019-04-05T16:35:26.881Z,21.13
2019-04-05T16:40:31.527Z,20.97
2019-04-05T16:45:38.353Z,20.63
2019-04-05T16:50:42.253Z,21.33
2019-04-05T16:55:45.400Z,23.17
2019-04-05T17:00:48.661Z,22.07
2019-04-05T17:05:52.329Z,20.80
2019-04-05T17:10:55.575Z,19.30
2019-04-05T17:15:59.175Z,20.23
2019-04-05T17:21:02.896Z,21.33
2019-04-05T17:26:06.220Z,17.57
2019-04-05T17:31:09.489Z,17.27
2019-04-05T17:36:12.837Z,18.37
2019-04-05T17:41:16.183Z,18.63
2019-04-05T17:46:19.848Z,17.63
2019-04-05T17:51:23.169Z,19.43
2019-04-05T17:56:26.823Z,20.63
2019-04-05T18:01:30.639Z,17.23
2019-04-05T18:06:34.233Z,17.07
2019-04-05T18:11:37.603Z,24.67
2019-04-05T18:16:40.874Z,40.33
2019-04-05T18:21:44.613Z,24.03
2019-04-05T18:26:47.872Z,34.73
2019-04-05T18:31:51.128Z,24.93
2019-04-05T18:36:56.049Z,25.37
2019-04-05T18:41:59.524Z,24.90
2019-04-05T18:47:02.868Z,29.40
2019-04-05T18:52:06.997Z,31.57
2019-04-05T18:57:10.265Z,34.67
2019-04-05T19:02:13.604Z,27.33
2019-04-05T19:07:16.952Z,27.57
2019-04-05T19:12:20.300Z,38.50
2019-04-05T19:17:24.682Z,27.07
2019-04-05T19:22:28.391Z,36.13
2019-04-05T19:27:31.801Z,26.43
2019-04-05T19:52:55.053Z,31.50
2019-04-05T19:57:58.427Z,40.87
2019-04-05T20:03:01.758Z,20.57
2019-04-05T20:08:05.107Z,19.13
2019-04-05T20:13:08.564Z,20.37
2019-04-05T20:18:11.841Z,21.03
2019-04-05T20:23:15.096Z,21.13
2019-04-05T20:28:18.611Z,22.13
2019-04-05T20:33:22.277Z,19.83
2019-04-05T20:38:25.562Z,20.10
2019-04-05T20:43:28.820Z,17.90
2019-04-05T20:48:32.377Z,20.60
2019-04-05T20:53:35.708Z,17.23
2019-04-05T20:58:39.055Z,18.00
2019-04-05T21:03:42.342Z,30.13
2019-04-05T21:08:45.671Z,18.87
2019-04-05T21:13:49.053Z,19.97
2019-04-05T21:18:52.964Z,23.03
2019-04-05T21:23:56.228Z,18.13
2019-04-05T21:28:59.506Z,21.83
2019-04-05T21:34:02.908Z,26.03
2019-04-05T21:39:06.881Z,18.63
2019-04-05T21:44:10.220Z,13.73
2019-04-05T21:49:13.505Z,13.60
2019-04-05T21:54:17.196Z,12.03
2019-04-05T21:59:20.460Z,16.20
2019-04-05T22:04:23.779Z,13.33
2019-04-05T22:09:27.547Z,12.80
2019-04-05T22:14:30.876Z,13.20
2019-04-05T22:19:34.132Z,17.33
2019-04-05T22:24:37.793Z,19.73
2019-04-05T22:29:41.061Z,20.23
2019-04-05T22:34:44.315Z,13.33
2019-04-05T22:39:47.923Z,11.90
2019-04-05T22:44:51.240Z,24.97
2019-04-05T22:49:54.579Z,15.63
2019-04-05T22:54:57.831Z,17.83
2019-04-05T23:00:01.114Z,13.10
2019-04-05T23:05:05.262Z,40.53
2019-04-05T23:10:08.680Z,40.87
2019-04-05T23:15:12.327Z,13.53
2019-04-05T23:20:36.390Z,11.50
2019-04-05T23:25:39.717Z,18.80
2019-04-05T23:30:42.984Z,28.77
2019-04-05T23:35:46.691Z,18.33
2019-04-05T23:40:50.033Z,13.93
2019-04-05T23:45:53.628Z,17.97
2019-04-05T23:50:56.888Z,22.53
2019-04-05T23:56:00.235Z,15.60
